createdAt,value
2022-10-08T00:01:51.290Z,76.44
2022-10-08T00:04:17.770Z,76.46
2022-10-08T00:06:44.226Z,76.64
2022-10-08T00:09:10.630Z,76.96
2022-10-08T00:11:39.565Z,77.07
2022-10-08T00:14:07.067Z,77.06
2022-10-08T00:16:40.288Z,77.29
2022-10-08T00:19:10.980Z,77.01
2022-10-08T00:21:40.161Z,77.35
2022-10-08T00:24:08.115Z,77.31
2022-10-08T00:26:39.745Z,77.02
2022-10-08T00:29:13.209Z,77.09
2022-10-08T00:31:41.742Z,76.83
2022-10-08T00:34:10.827Z,77.53
2022-10-08T00:36:39.341Z,77.32
2022-10-08T00:39:15.373Z,77.31
2022-10-08T00:41:44.042Z,77.10
2022-10-08T00:44:47.860Z,76.96
2022-10-08T00:47:50.032Z,77.35
2022-10-08T00:50:24.642Z,77.04
2022-10-08T00:52:58.321Z,77.04
2022-10-08T00:55:29.150Z,76.96
2022-10-08T00:58:02.405Z,77.33
2022-10-08T01:00:30.057Z,77.19
2022-10-08T01:02:56.828Z,77.13
2022-10-08T01:05:35.074Z,76.78
2022-10-08T01:08:20.734Z,77.29
2022-10-08T01:11:00.529Z,77.34
2022-10-08T01:13:49.113Z,77.30
2022-10-08T01:16:54.102Z,76.83
2022-10-08T01:19:54.755Z,77.09
2022-10-08T01:22:39.597Z,76.94
2022-10-08T01:25:53.975Z,76.94
2022-10-08T01:28:27.417Z,77.11
2022-10-08T01:30:53.792Z,76.97
2022-10-08T01:33:32.298Z,77.08
2022-10-08T01:36:01.454Z,76.90
2022-10-08T01:38:33.413Z,76.67
2022-10-08T01:41:06.150Z,76.71
2022-10-08T01:43:37.881Z,76.57
2022-10-08T01:46:16.108Z,76.13
2022-10-08T01:48:44.312Z,76.49
2022-10-08T01:51:26.521Z,76.36
2022-10-08T01:53:53.481Z,76.34
2022-10-08T01:56:25.304Z,76.26
2022-10-08T01:58:58.037Z,76.17
2022-10-08T02:01:32.765Z,76.21
2022-10-08T02:04:17.674Z,76.18
2022-10-08T02:06:50.739Z,76.05
2022-10-08T02:09:18.078Z,76.07
2022-10-08T02:11:44.507Z,76.24
2022-10-08T02:14:11.752Z,76.10
2022-10-08T02:16:47.817Z,76.21
2022-10-08T02:19:35.165Z,76.09
2022-10-08T02:22:05.452Z,76.45
2022-10-08T02:24:46.815Z,76.31
2022-10-08T02:27:15.211Z,76.55
2022-10-08T02:30:08.035Z,76.57
2022-10-08T02:32:42.749Z,76.65
2022-10-08T02:35:19.172Z,76.60
2022-10-08T02:37:52.533Z,76.54
2022-10-08T02:40:20.998Z,76.82
2022-10-08T02:42:54.917Z,76.68
2022-10-08T02:45:30.017Z,76.81
2022-10-08T02:48:05.354Z,76.60
2022-10-08T02:50:35.100Z,76.79
2022-10-08T02:53:03.021Z,76.65
2022-10-08T02:55:29.349Z,76.62
2022-10-08T02:58:08.217Z,76.24
2022-10-08T03:00:40.753Z,76.31
2022-10-08T03:03:14.374Z,76.29
2022-10-08T03:05:43.834Z,76.43
2022-10-08T03:08:14.233Z,76.18
2022-10-08T03:10:43.286Z,76.34
2022-10-08T03:13:12.117Z,76.20
2022-10-08T03:15:41.141Z,76.24
2022-10-08T03:18:09.815Z,75.94
2022-10-08T03:20:44.871Z,76.23
2022-10-08T03:23:13.378Z,75.99
2022-10-08T03:25:39.748Z,76.19
2022-10-08T03:28:06.170Z,76.05
2022-10-08T03:30:32.618Z,75.92
2022-10-08T03:32:59.014Z,75.91
2022-10-08T03:35:25.393Z,76.01
2022-10-08T03:37:53.535Z,75.91
2022-10-08T03:40:21.141Z,76.07
2022-10-08T03:42:47.864Z,76.38
2022-10-08T03:45:14.720Z,76.26
2022-10-08T03:47:41.147Z,76.25
2022-10-08T03:50:07.965Z,76.40
2022-10-08T03:52:34.313Z,76.46
2022-10-08T03:55:00.701Z,76.46
2022-10-08T03:57:27.046Z,76.16
2022-10-08T03:59:53.734Z,76.36
2022-10-08T04:02:20.126Z,76.42
2022-10-08T04:04:46.524Z,76.45
2022-10-08T04:07:12.877Z,76.56
2022-10-08T04:09:39.217Z,76.47
2022-10-08T04:12:05.578Z,76.45
2022-10-08T04:14:31.990Z,76.24
2022-10-08T04:16:58.425Z,76.25
2022-10-08T04:19:24.835Z,76.31
2022-10-08T04:21:51.210Z,76.17
2022-10-08T04:24:17.577Z,76.17
2022-10-08T04:26:44.002Z,75.97
2022-10-08T04:29:12.447Z,76.20
2022-10-08T04:31:39.692Z,76.44
2022-10-08T04:34:06.424Z,75.96
2022-10-08T04:36:33.072Z,76.12
2022-10-08T04:38:59.497Z,76.07
2022-10-08T04:41:26.904Z,76.00
2022-10-08T04:43:55.091Z,75.92
2022-10-08T04:46:24.630Z,75.87
2022-10-08T04:48:53.481Z,75.73
2022-10-08T04:51:25.041Z,75.81
2022-10-08T04:53:52.534Z,75.78
2022-10-08T04:56:21.611Z,75.77
2022-10-08T04:58:48.606Z,75.78
2022-10-08T05:01:18.448Z,75.50
2022-10-08T05:03:47.526Z,75.50
2022-10-08T05:06:16.359Z,75.56
2022-10-08T05:08:43.866Z,75.45
2022-10-08T05:11:10.537Z,75.39
2022-10-08T05:13:37.301Z,75.41
2022-10-08T05:16:13.873Z,75.37
2022-10-08T05:18:41.590Z,75.35
2022-10-08T05:21:14.169Z,75.09
2022-10-08T05:23:42.690Z,75.13
2022-10-08T05:26:17.641Z,75.15
2022-10-08T05:28:46.885Z,75.22
2022-10-08T05:31:14.867Z,74.83
2022-10-08T05:33:51.030Z,74.65
2022-10-08T05:36:24.427Z,74.68
2022-10-08T05:38:50.893Z,74.62
2022-10-08T05:41:21.692Z,74.28
2022-10-08T05:43:49.510Z,74.52
2022-10-08T05:46:17.079Z,74.44
2022-10-08T05:48:45.341Z,74.24
2022-10-08T05:51:16.998Z,74.00
2022-10-08T05:53:49.425Z,73.77
2022-10-08T05:56:18.420Z,73.55
2022-10-08T05:58:46.393Z,73.58
2022-10-08T06:01:14.469Z,74.03
2022-10-08T06:03:41.181Z,73.86
2022-10-08T06:06:11.167Z,73.85
2022-10-08T06:08:38.338Z,73.76
2022-10-08T06:11:06.083Z,73.27
2022-10-08T06:13:33.202Z,73.58
2022-10-08T06:16:02.937Z,73.41
2022-10-08T06:18:32.265Z,72.93
2022-10-08T06:21:06.706Z,73.04
2022-10-08T06:23:34.077Z,73.08
2022-10-08T06:26:09.077Z,73.26
2022-10-08T06:28:37.657Z,73.37
2022-10-08T06:31:05.655Z,73.26
2022-10-08T06:33:32.440Z,73.22
2022-10-08T06:36:13.437Z,73.17
2022-10-08T06:38:39.813Z,73.19
2022-10-08T06:41:06.177Z,73.05
2022-10-08T06:43:32.556Z,72.71
2022-10-08T06:46:00.188Z,72.81
2022-10-08T06:48:27.373Z,72.75
2022-10-08T06:51:02.413Z,72.45
2022-10-08T06:53:29.043Z,72.25
2022-10-08T06:55:59.450Z,72.30
2022-10-08T06:58:26.410Z,72.25
2022-10-08T07:01:02.451Z,72.44
2022-10-08T07:03:29.169Z,72.58
2022-10-08T07:05:55.530Z,72.47
2022-10-08T07:08:21.908Z,72.38
2022-10-08T07:10:50.036Z,72.45
2022-10-08T07:13:16.517Z,72.21
2022-10-08T07:15:42.921Z,72.26
2022-10-08T07:18:11.697Z,72.04
2022-10-08T07:20:39.365Z,71.92
2022-10-08T07:23:05.979Z,71.90
2022-10-08T07:25:32.878Z,71.98
2022-10-08T07:27:59.256Z,71.74
2022-10-08T07:30:25.649Z,71.70
2022-10-08T07:32:53.678Z,71.28
2022-10-08T07:35:20.030Z,71.08
2022-10-08T07:37:46.382Z,70.55
2022-10-08T07:40:12.811Z,70.35
2022-10-08T07:42:39.216Z,70.95
2022-10-08T07:45:05.919Z,70.66
2022-10-08T07:47:32.290Z,70.42
2022-10-08T07:49:58.713Z,70.12
2022-10-08T07:52:26.002Z,69.62
2022-10-08T07:54:52.348Z,69.28
2022-10-08T07:57:18.954Z,69.26
2022-10-08T07:59:45.538Z,69.82
2022-10-08T08:02:12.106Z,70.45
2022-10-08T08:04:38.494Z,70.68
2022-10-08T08:07:04.853Z,70.93
2022-10-08T08:09:31.289Z,71.01
2022-10-08T08:11:57.661Z,70.97
2022-10-08T08:14:24.053Z,70.89
2022-10-08T08:16:50.550Z,70.69
2022-10-08T08:19:16.956Z,70.07
2022-10-08T08:21:43.386Z,70.24
2022-10-08T08:24:12.391Z,70.25
2022-10-08T08:26:41.060Z,71.20
2022-10-08T08:29:10.862Z,70.83
2022-10-08T08:31:40.112Z,70.40
2022-10-08T08:34:15.572Z,70.33
2022-10-08T08:36:44.424Z,70.68
2022-10-08T08:39:18.833Z,70.71
2022-10-08T08:42:13.051Z,70.91
2022-10-08T08:44:42.106Z,70.80
2022-10-08T08:47:17.766Z,70.92
2022-10-08T08:49:50.710Z,71.01
2022-10-08T08:52:21.989Z,70.68
2022-10-08T08:54:53.329Z,70.83
2022-10-08T08:57:32.221Z,71.17
2022-10-08T09:00:17.534Z,71.07
2022-10-08T09:02:57.805Z,70.73
2022-10-08T09:05:28.146Z,69.98
2022-10-08T09:08:05.219Z,69.36
2022-10-08T09:10:52.069Z,69.21
2022-10-08T09:13:24.395Z,69.27
2022-10-08T09:15:52.888Z,69.09
2022-10-08T09:18:19.265Z,68.59
2022-10-08T09:20:45.684Z,67.85
2022-10-08T09:23:18.570Z,65.79
2022-10-08T09:25:51.889Z,65.48
2022-10-08T09:28:45.236Z,65.70
2022-10-08T09:31:26.739Z,64.95
2022-10-08T09:34:01.747Z,65.09
2022-10-08T09:36:31.124Z,64.23
2022-10-08T09:38:59.510Z,64.30
2022-10-08T09:41:28.618Z,63.54
2022-10-08T09:44:24.355Z,62.61
2022-10-08T09:47:05.298Z,62.14
2022-10-08T09:49:34.596Z,61.56
2022-10-08T09:52:14.815Z,61.49
2022-10-08T09:54:48.753Z,61.86
2022-10-08T09:57:18.253Z,60.55
2022-10-08T09:59:54.719Z,61.16
2022-10-08T10:02:33.082Z,60.89
2022-10-08T10:05:02.047Z,61.02
2022-10-08T10:07:39.513Z,60.68
2022-10-08T10:10:17.798Z,60.47
2022-10-08T10:12:49.086Z,60.54
2022-10-08T10:15:20.171Z,61.05
2022-10-08T10:17:57.317Z,60.29
2022-10-08T10:20:33.188Z,60.08
2022-10-08T10:23:56.001Z,59.89
2022-10-08T10:26:30.997Z,60.25
2022-10-08T10:29:02.811Z,60.55
2022-10-08T10:31:39.554Z,60.63
2022-10-08T10:34:21.442Z,60.79
2022-10-08T10:36:52.562Z,59.91
2022-10-08T10:39:37.789Z,59.32
2022-10-08T10:42:22.737Z,58.17
2022-10-08T10:44:53.746Z,57.83
2022-10-08T10:47:30.938Z,57.27
2022-10-08T10:50:00.989Z,56.98
2022-10-08T10:52:40.696Z,55.68
2022-10-08T10:55:28.835Z,55.69
2022-10-08T10:58:08.341Z,56.08
2022-10-08T11:00:57.178Z,56.85
2022-10-08T11:03:44.813Z,56.90
2022-10-08T11:06:35.350Z,57.10
2022-10-08T11:09:06.457Z,56.76
2022-10-08T11:11:52.321Z,56.65
2022-10-08T11:14:39.130Z,56.64
2022-10-08T11:17:24.938Z,55.92
2022-10-08T11:20:03.396Z,55.39
2022-10-08T11:22:44.587Z,55.93
2022-10-08T11:25:49.999Z,55.45
2022-10-08T11:28:42.091Z,55.68
2022-10-08T11:31:27.385Z,55.55
2022-10-08T11:33:56.214Z,54.77
2022-10-08T11:36:51.597Z,54.97
2022-10-08T11:39:31.781Z,55.06
2022-10-08T11:42:33.814Z,55.15
2022-10-08T11:45:31.697Z,54.98
2022-10-08T11:48:00.164Z,55.45
2022-10-08T11:50:34.481Z,56.19
2022-10-08T11:53:09.578Z,56.21
2022-10-08T11:55:36.730Z,56.00
2022-10-08T11:58:17.524Z,55.95
2022-10-08T12:00:46.580Z,56.08
2022-10-08T12:03:43.452Z,56.56
2022-10-08T12:06:18.206Z,56.86
2022-10-08T12:08:53.677Z,57.74
2022-10-08T12:11:32.064Z,58.62
2022-10-08T12:14:10.646Z,59.39
2022-10-08T12:16:55.700Z,59.75
2022-10-08T12:19:37.161Z,59.98
2022-10-08T12:22:25.159Z,60.60
2022-10-08T12:24:54.820Z,61.00
2022-10-08T12:27:23.368Z,61.00
2022-10-08T12:30:10.986Z,61.29
2022-10-08T12:32:40.031Z,60.91
2022-10-08T12:35:20.866Z,60.80
2022-10-08T12:38:15.521Z,60.43
2022-10-08T12:41:00.646Z,60.94
2022-10-08T12:43:40.069Z,61.37
2022-10-08T12:46:24.617Z,61.21
2022-10-08T12:48:56.466Z,60.72
2022-10-08T12:51:40.290Z,60.04
2022-10-08T12:54:18.619Z,58.83
2022-10-08T12:56:45.216Z,58.03
2022-10-08T12:59:12.718Z,57.78
2022-10-08T13:01:41.830Z,58.28
2022-10-08T13:04:23.841Z,58.07
2022-10-08T13:06:52.600Z,58.13
2022-10-08T13:09:30.964Z,57.38
2022-10-08T13:12:03.386Z,57.15
2022-10-08T13:14:35.605Z,56.27
2022-10-08T13:17:02.799Z,55.49
2022-10-08T13:19:34.866Z,54.90
2022-10-08T13:22:25.169Z,55.14
2022-10-08T13:24:51.924Z,54.52
2022-10-08T13:27:34.157Z,54.77
2022-10-08T13:30:21.789Z,53.21
2022-10-08T13:32:48.222Z,52.92
2022-10-08T13:35:23.791Z,53.47
2022-10-08T13:37:54.279Z,54.12
2022-10-08T13:40:23.520Z,54.54
2022-10-08T13:42:52.970Z,55.29
2022-10-08T13:45:27.714Z,54.12
2022-10-08T13:47:54.849Z,54.89
2022-10-08T13:50:22.146Z,55.26
2022-10-08T13:52:54.864Z,55.79
2022-10-08T13:55:29.749Z,55.28
2022-10-08T13:57:59.824Z,55.50
2022-10-08T14:00:27.125Z,55.70
2022-10-08T14:02:53.670Z,56.69
2022-10-08T14:05:21.397Z,56.91
2022-10-08T14:07:52.822Z,57.06
2022-10-08T14:10:19.385Z,56.84
2022-10-08T14:12:45.921Z,56.87
2022-10-08T14:15:13.909Z,56.45
2022-10-08T14:17:40.249Z,55.43
2022-10-08T14:20:07.648Z,55.05
2022-10-08T14:22:38.657Z,54.88
2022-10-08T14:25:08.421Z,55.44
2022-10-08T14:27:34.810Z,56.08
2022-10-08T14:30:01.235Z,55.85
2022-10-08T14:32:27.620Z,56.06
2022-10-08T14:34:53.973Z,56.66
2022-10-08T14:37:20.352Z,56.96
2022-10-08T14:39:46.829Z,56.90
2022-10-08T14:42:13.274Z,56.51
2022-10-08T14:44:39.709Z,57.01
2022-10-08T14:47:06.055Z,56.68
2022-10-08T14:49:32.448Z,56.66
2022-10-08T14:51:58.804Z,57.23
2022-10-08T14:54:25.825Z,57.33
2022-10-08T14:56:52.213Z,57.22
2022-10-08T14:59:19.237Z,56.69
2022-10-08T15:01:46.052Z,56.91
2022-10-08T15:04:14.686Z,56.68
2022-10-08T15:06:42.182Z,57.05
2022-10-08T15:09:11.397Z,57.03
2022-10-08T15:11:38.388Z,56.75
2022-10-08T15:14:05.182Z,56.60
2022-10-08T15:16:31.657Z,56.91
2022-10-08T15:18:58.054Z,56.52
2022-10-08T15:21:24.425Z,56.66
2022-10-08T15:23:50.807Z,56.74
2022-10-08T15:26:18.466Z,56.84
2022-10-08T15:28:46.198Z,57.35
2022-10-08T15:31:16.517Z,57.50
2022-10-08T15:33:50.680Z,57.83
2022-10-08T15:36:32.835Z,57.94
2022-10-08T15:39:04.675Z,58.25
2022-10-08T15:41:35.483Z,58.52
2022-10-08T15:44:17.973Z,58.43
2022-10-08T15:46:48.711Z,58.36
2022-10-08T15:49:15.377Z,58.58
2022-10-08T15:51:42.415Z,58.33
2022-10-08T15:54:08.881Z,58.14
2022-10-08T15:56:36.009Z,58.00
2022-10-08T15:59:02.426Z,58.31
2022-10-08T16:01:29.726Z,58.38
2022-10-08T16:03:57.565Z,57.67
2022-10-08T16:06:29.592Z,58.07
2022-10-08T16:08:57.677Z,58.49
2022-10-08T16:11:30.502Z,58.61
2022-10-08T16:14:02.546Z,58.67
2022-10-08T16:16:29.256Z,59.03
2022-10-08T16:19:01.229Z,58.97
2022-10-08T16:21:29.955Z,58.79
2022-10-08T16:23:57.491Z,59.48
2022-10-08T16:26:24.338Z,59.40
2022-10-08T16:28:55.133Z,59.48
2022-10-08T16:31:23.005Z,59.78
2022-10-08T16:33:55.673Z,59.82
2022-10-08T16:36:22.721Z,59.94
2022-10-08T16:38:49.085Z,60.37
2022-10-08T16:41:21.206Z,60.06
2022-10-08T16:43:49.749Z,60.51
2022-10-08T16:46:19.962Z,60.54
2022-10-08T16:48:57.952Z,60.67
2022-10-08T16:51:26.431Z,60.62
2022-10-08T16:53:56.269Z,60.69
2022-10-08T16:56:25.328Z,60.69
2022-10-08T16:58:59.680Z,61.10
2022-10-08T17:01:27.002Z,60.81
2022-10-08T17:03:54.508Z,60.87
2022-10-08T17:06:23.064Z,61.08
2022-10-08T17:08:50.658Z,60.95
2022-10-08T17:11:18.424Z,61.15
2022-10-08T17:13:46.930Z,61.37
2022-10-08T17:16:14.527Z,61.68
2022-10-08T17:18:44.318Z,61.46
2022-10-08T17:21:12.160Z,61.72
2022-10-08T17:23:38.871Z,61.94
2022-10-08T17:26:09.127Z,61.92
2022-10-08T17:28:39.436Z,61.85
2022-10-08T17:31:07.727Z,62.07
2022-10-08T17:33:36.145Z,62.01
2022-10-08T17:36:12.125Z,62.41
2022-10-08T17:38:40.481Z,62.42
2022-10-08T17:41:11.295Z,62.72
2022-10-08T17:43:37.652Z,62.92
2022-10-08T17:46:13.957Z,63.24
2022-10-08T17:48:40.390Z,63.51
2022-10-08T17:51:09.550Z,63.77
2022-10-08T17:53:36.218Z,63.79
2022-10-08T17:56:05.525Z,64.07
2022-10-08T17:58:32.073Z,64.08
2022-10-08T18:01:23.360Z,64.48
2022-10-08T18:03:52.434Z,64.60
2022-10-08T18:06:19.430Z,64.62
2022-10-08T18:08:45.814Z,64.93
2022-10-08T18:11:14.602Z,65.11
2022-10-08T18:13:41.392Z,65.45
2022-10-08T18:16:15.168Z,65.38
2022-10-08T18:18:43.417Z,65.55
2022-10-08T18:21:11.918Z,65.80
2022-10-08T18:23:39.026Z,65.84
2022-10-08T18:26:18.466Z,65.99
2022-10-08T18:28:46.622Z,66.29
2022-10-08T18:31:15.135Z,66.32
2022-10-08T18:33:43.932Z,66.14
2022-10-08T18:36:11.424Z,66.32
2022-10-08T18:38:38.981Z,66.44
2022-10-08T18:41:19.110Z,66.66
2022-10-08T18:43:46.718Z,66.69
2022-10-08T18:46:14.852Z,66.66
2022-10-08T18:48:41.326Z,66.50
2022-10-08T18:51:10.359Z,66.60
2022-10-08T18:53:38.568Z,66.47
2022-10-08T18:56:09.320Z,66.45
2022-10-08T18:58:35.788Z,66.50
2022-10-08T19:01:02.230Z,66.22
2022-10-08T19:03:28.582Z,66.17
2022-10-08T19:05:55.002Z,66.19
2022-10-08T19:08:22.005Z,66.21
2022-10-08T19:10:48.821Z,65.85
2022-10-08T19:13:15.437Z,66.13
2022-10-08T19:15:41.879Z,66.10
2022-10-08T19:18:08.657Z,66.27
2022-10-08T19:20:35.960Z,66.15
2022-10-08T19:23:02.458Z,66.29
2022-10-08T19:25:29.956Z,66.30
2022-10-08T19:27:56.701Z,66.37
2022-10-08T19:30:26.636Z,66.64
2022-10-08T19:32:55.052Z,66.63
2022-10-08T19:35:21.444Z,67.08
2022-10-08T19:37:47.858Z,67.01
2022-10-08T19:40:14.218Z,67.16
2022-10-08T19:42:40.582Z,67.14
2022-10-08T19:45:07.526Z,67.06
2022-10-08T19:47:35.743Z,67.07
2022-10-08T19:50:02.647Z,67.01
2022-10-08T19:52:29.022Z,67.10
2022-10-08T19:54:55.400Z,66.82
2022-10-08T19:57:21.750Z,66.93
2022-10-08T19:59:48.130Z,67.07
2022-10-08T20:02:14.573Z,67.35
2022-10-08T20:04:42.202Z,67.05
2022-10-08T20:07:08.597Z,67.07
2022-10-08T20:09:36.114Z,66.97
2022-10-08T20:12:03.227Z,66.99
2022-10-08T20:14:29.815Z,67.10
2022-10-08T20:16:56.233Z,67.15
2022-10-08T20:19:22.697Z,67.22
2022-10-08T20:21:50.437Z,67.25
2022-10-08T20:24:18.887Z,67.41
2022-10-08T20:26:45.899Z,67.47
2022-10-08T20:29:15.180Z,67.43
2022-10-08T20:31:44.914Z,67.56
2022-10-08T20:34:14.761Z,67.69
2022-10-08T20:36:41.410Z,67.76
2022-10-08T20:39:07.949Z,67.90
2022-10-08T20:41:34.296Z,68.10
2022-10-08T20:44:02.907Z,67.89
2022-10-08T20:46:30.457Z,67.91
2022-10-08T20:48:56.960Z,67.86
2022-10-08T20:51:28.341Z,67.69
2022-10-08T20:54:00.714Z,68.04
2022-10-08T20:56:28.995Z,67.67
2022-10-08T20:58:56.360Z,68.08
2022-10-08T21:01:28.664Z,68.38
2022-10-08T21:03:55.487Z,68.22
2022-10-08T21:06:25.636Z,68.53
2022-10-08T21:08:53.568Z,68.55
2022-10-08T21:11:22.507Z,68.48
2022-10-08T21:13:49.607Z,68.44
2022-10-08T21:16:19.520Z,68.62
2022-10-08T21:18:56.882Z,68.63
2022-10-08T21:21:24.380Z,68.82
2022-10-08T21:23:50.817Z,69.08
2022-10-08T21:26:21.483Z,68.87
2022-10-08T21:28:50.197Z,68.92
2022-10-08T21:31:17.811Z,69.19
2022-10-08T21:33:47.085Z,69.04
2022-10-08T21:36:16.823Z,69.17
2022-10-08T21:38:43.425Z,69.32
2022-10-08T21:41:13.202Z,69.34
2022-10-08T21:43:41.670Z,69.51
2022-10-08T21:46:10.325Z,69.67
2022-10-08T21:48:37.222Z,69.36
2022-10-08T21:51:06.980Z,69.23
2022-10-08T21:53:34.918Z,69.44
2022-10-08T21:56:04.196Z,69.63
2022-10-08T21:58:35.446Z,69.67
2022-10-08T22:01:01.852Z,69.76
2022-10-08T22:03:28.294Z,69.67
2022-10-08T22:05:57.521Z,69.26
2022-10-08T22:08:25.783Z,69.63
2022-10-08T22:10:53.171Z,69.45
2022-10-08T22:13:20.537Z,69.49
2022-10-08T22:15:55.007Z,69.21
2022-10-08T22:18:23.006Z,69.51
2022-10-08T22:20:49.896Z,69.22
2022-10-08T22:23:17.201Z,69.46
2022-10-08T22:25:52.491Z,69.80
2022-10-08T22:28:19.081Z,69.61
2022-10-08T22:30:45.573Z,69.76
2022-10-08T22:33:12.060Z,69.78
2022-10-08T22:35:38.625Z,69.15
2022-10-08T22:38:05.092Z,69.79
2022-10-08T22:40:31.842Z,69.41
2022-10-08T22:42:58.257Z,69.67
2022-10-08T22:45:24.841Z,69.60
2022-10-08T22:47:51.666Z,69.37
2022-10-08T22:50:18.725Z,69.41
2022-10-08T22:52:49.916Z,69.77
2022-10-08T22:55:17.215Z,69.62
2022-10-08T22:57:44.077Z,69.74
2022-10-08T23:00:11.198Z,70.09
2022-10-08T23:02:37.617Z,69.71
2022-10-08T23:05:04.659Z,69.81
2022-10-08T23:07:31.057Z,70.18
2022-10-08T23:09:57.422Z,70.06
2022-10-08T23:12:23.905Z,70.01
2022-10-08T23:14:50.259Z,69.88
2022-10-08T23:17:16.676Z,70.11
2022-10-08T23:19:43.053Z,70.00
2022-10-08T23:22:09.423Z,69.77
2022-10-08T23:24:35.822Z,69.92
2022-10-08T23:27:04.497Z,69.78
2022-10-08T23:29:32.761Z,70.21
2022-10-08T23:31:59.217Z,69.96
2022-10-08T23:34:25.683Z,69.93
2022-10-08T23:36:52.132Z,70.36
2022-10-08T23:39:18.689Z,70.32
2022-10-08T23:41:45.071Z,70.50
2022-10-08T23:44:11.965Z,70.04
2022-10-08T23:46:38.336Z,70.32
2022-10-08T23:49:04.721Z,69.91
2022-10-08T23:51:32.062Z,70.20
2022-10-08T23:53:58.832Z,69.93
2022-10-08T23:56:25.193Z,70.04
2022-10-08T23:58:51.542Z,70.06
